Redmond, Oregon
Current Conditions -  °F | °C
As of 9:56 AM on Wednesday 28 Jan 2015 (Local Time) from KRDM Reporting Station
Few Clouds Few Clouds  
Wind Chill:   Ceiling: Unl
Heat Index:   Visibility: 10mi
Dew Point:   Wind: 8mph
Humidity: 71%   Direction: 160°SSE
Pressure: 30.34"   Gusts: NA
Location:  44.27°N, 121.17°W
Report Text: KRDM 281756Z 16007KT 10SM FEW120 06/01 A3034 RMK AO2 SLP285 T00610011 10061 21028 51011
Loading
Personal Weather Stations






























Interactive Weather Map New forecast layout! Learn more

10-Day Weather Forecast

Advertisements
Track Severe Weather on mobile